Time;durP1;ratioP1;P1;durP2;ratioP2;P2;SDS_P1;SDS_P2;PMS_P1;PMS_P2;Temp;Humidity;BMP_temperature;BMP_pressure;BME280_temperature;BME280_humidity;BME280_pressure;Samples;Min_cycle;Max_cycle;Signal;HPM_P1;HPM_P2
2022/03/23 00:00:31;;;;;;;13.53;10.07;;;;;;;0.75;54.02;101002.94;4900429;29;20234;-82
2022/03/23 00:02:58;;;;;;;13.80;10.50;;;;;;;0.69;53.79;101009.56;4895031;29;20235;-82
2022/03/23 00:05:25;;;;;;;14.33;10.10;;;;;;;0.65;54.54;101008.13;4919558;29;20246;-81
2022/03/23 00:07:52;;;;;;;12.37;9.17;;;;;;;0.58;54.70;101008.72;4924017;29;20242;-81
2022/03/23 00:10:20;;;;;;;13.83;10.13;;;;;;;0.53;54.87;101010.88;4906626;29;20234;-81
2022/03/23 00:12:47;;;;;;;14.03;9.43;;;;;;;0.48;55.21;101002.50;4912213;29;20301;-82
2022/03/23 00:15:13;;;;;;;15.37;9.77;;;;;;;0.42;55.47;100999.38;4904483;29;20259;-83
2022/03/23 00:17:41;;;;;;;15.60;9.50;;;;;;;0.37;55.75;100995.47;4929103;29;20242;-81
2022/03/23 00:20:09;;;;;;;12.73;9.87;;;;;;;0.32;55.60;100993.19;4905394;29;20245;-81
2022/03/23 00:22:37;;;;;;;13.30;9.43;;;;;;;0.28;55.98;100999.63;4919019;29;20644;-81
2022/03/23 00:25:04;;;;;;;15.57;9.67;;;;;;;0.21;55.90;100997.63;4914306;29;20297;-81
2022/03/23 00:27:31;;;;;;;13.20;9.43;;;;;;;0.12;56.64;100993.91;4919375;29;20604;-79
2022/03/23 00:29:58;;;;;;;13.80;9.70;;;;;;;0.10;57.12;100990.53;4892214;29;20289;-80
2022/03/23 00:32:25;;;;;;;13.63;9.30;;;;;;;0.05;57.48;100994.50;4912540;29;20253;-80
2022/03/23 00:34:53;;;;;;;15.63;9.83;;;;;;;0.00;57.24;100989.59;4909354;29;20246;-80
2022/03/23 00:37:20;;;;;;;13.20;9.17;;;;;;;-0.04;57.97;100988.97;4902905;29;20262;-79
2022/03/23 00:39:47;;;;;;;12.33;9.43;;;;;;;-0.07;58.00;100991.03;4899259;29;20262;-79
2022/03/23 00:42:13;;;;;;;11.83;8.73;;;;;;;-0.15;58.80;100980.25;4899492;29;20270;-79
2022/03/23 00:44:40;;;;;;;12.17;8.97;;;;;;;-0.09;58.89;100985.00;4904785;29;20716;-79
2022/03/23 00:47:07;;;;;;;13.63;8.50;;;;;;;-0.09;58.77;100975.31;4901960;29;20310;-79
2022/03/23 00:49:34;;;;;;;14.90;9.07;;;;;;;-0.02;58.73;100975.69;4904060;29;20954;-79
2022/03/23 00:52:05;;;;;;;11.50;8.13;;;;;;;0.02;59.10;100974.50;4897903;29;20237;-79
2022/03/23 00:54:36;;;;;;;10.23;7.90;;;;;;;0.09;58.79;100974.88;4904023;29;20258;-79
2022/03/23 00:57:05;;;;;;;11.40;8.17;;;;;;;0.14;58.54;100970.06;4896904;29;20246;-79
2022/03/23 00:59:32;;;;;;;10.53;7.73;;;;;;;0.17;57.96;100964.56;4907403;29;20234;-79
2022/03/23 01:01:59;;;;;;;12.10;7.47;;;;;;;0.17;58.32;100959.28;4907082;29;20246;-79
2022/03/23 01:04:26;;;;;;;11.07;7.97;;;;;;;0.22;58.08;100965.03;4903290;29;20237;-79
2022/03/23 01:06:55;;;;;;;9.20;7.50;;;;;;;0.23;57.88;100964.91;4909965;29;20240;-79
2022/03/23 01:09:23;;;;;;;8.47;6.67;;;;;;;0.22;57.98;100960.59;4905993;29;20325;-79
2022/03/23 01:11:52;;;;;;;9.77;7.00;;;;;;;0.28;58.06;100959.28;4897210;29;20260;-82
2022/03/23 01:14:22;;;;;;;10.53;7.70;;;;;;;0.26;57.79;100955.91;4900538;29;20334;-79
2022/03/23 01:16:50;;;;;;;10.00;7.13;;;;;;;0.30;57.86;100955.56;4902373;29;20332;-79
2022/03/23 01:19:20;;;;;;;9.63;7.43;;;;;;;0.30;57.81;100957.34;4901892;29;20380;-79
2022/03/23 01:21:47;;;;;;;11.40;7.33;;;;;;;0.33;57.15;100959.72;4903003;29;20326;-79
2022/03/23 01:24:14;;;;;;;7.80;7.00;;;;;;;0.27;58.10;100952.34;4902430;29;20241;-79
2022/03/23 01:26:40;;;;;;;9.87;7.50;;;;;;;0.20;58.94;100949.31;4904577;29;20274;-79
2022/03/23 01:29:08;;;;;;;10.63;7.83;;;;;;;0.18;59.07;100948.63;4900875;29;20715;-80
2022/03/23 01:31:37;;;;;;;8.90;7.13;;;;;;;0.17;59.76;100941.69;4907952;29;20670;-80
2022/03/23 01:34:04;;;;;;;10.13;7.20;;;;;;;0.18;59.27;100937.25;4894922;29;20230;-79
2022/03/23 01:36:31;;;;;;;10.37;7.30;;;;;;;0.11;59.80;100939.50;4904732;29;20409;-78
2022/03/23 01:38:58;;;;;;;10.27;8.07;;;;;;;0.05;60.60;100929.44;4901221;29;20238;-79
2022/03/23 01:41:25;;;;;;;9.87;7.53;;;;;;;-0.02;60.50;100928.28;4863101;29;1137759;-79
2022/03/23 01:43:52;;;;;;;10.00;6.90;;;;;;;-0.15;61.90;100935.47;4909145;29;20706;-79
2022/03/23 01:46:21;;;;;;;10.40;7.60;;;;;;;-0.24;63.99;100937.03;4907091;29;20241;-82
2022/03/23 01:48:48;;;;;;;11.23;7.60;;;;;;;-0.29;63.19;100939.16;4906509;29;20234;-80
2022/03/23 01:51:15;;;;;;;10.63;7.53;;;;;;;-0.34;63.19;100941.31;4904595;29;20281;-81
2022/03/23 01:53:42;;;;;;;9.40;7.30;;;;;;;-0.38;62.76;100931.13;4907212;29;20324;-79
2022/03/23 01:56:12;;;;;;;11.77;8.30;;;;;;;-0.45;63.60;100930.75;4885811;29;20354;-80
2022/03/23 01:58:40;;;;;;;11.13;7.87;;;;;;;-0.57;64.59;100929.06;4891085;29;20257;-79
2022/03/23 02:01:09;;;;;;;10.17;7.60;;;;;;;-0.65;65.66;100934.06;4893186;29;20230;-80
2022/03/23 02:03:36;;;;;;;11.10;7.53;;;;;;;-0.71;65.87;100931.91;4912303;29;20234;-80
2022/03/23 02:06:04;;;;;;;9.70;7.60;;;;;;;-0.74;66.23;100932.97;4902226;29;20242;-80
2022/03/23 02:08:31;;;;;;;9.63;7.27;;;;;;;-0.80;66.09;100920.28;4903325;29;20231;-81
2022/03/23 02:10:58;;;;;;;10.07;7.90;;;;;;;-0.89;66.62;100924.44;4904147;29;20233;-81
2022/03/23 02:13:30;;;;;;;9.87;7.70;;;;;;;-0.92;67.27;100913.31;4902715;29;20242;-80
2022/03/23 02:15:58;;;;;;;12.07;7.70;;;;;;;-0.99;67.93;100922.63;4910707;29;20241;-80
2022/03/23 02:18:28;;;;;;;9.23;7.53;;;;;;;-1.07;67.11;100927.59;4908066;29;20235;-81
2022/03/23 02:20:56;;;;;;;9.83;7.40;;;;;;;-1.17;67.32;100924.00;4906157;29;20244;-80
2022/03/23 02:23:23;;;;;;;11.10;7.30;;;;;;;-1.18;67.26;100922.31;4907395;29;20238;-80
2022/03/23 02:25:52;;;;;;;11.93;7.90;;;;;;;-1.22;68.84;100921.69;4902248;29;20237;-81
2022/03/23 02:28:21;;;;;;;10.97;7.20;;;;;;;-1.27;69.29;100923.81;4905943;29;20242;-80
2022/03/23 02:30:48;;;;;;;9.93;7.23;;;;;;;-1.30;68.20;100921.41;4905736;29;20652;-79
2022/03/23 02:33:19;;;;;;;10.20;7.40;;;;;;;-1.36;68.10;100927.97;4906297;29;20236;-78
2022/03/23 02:35:48;;;;;;;9.10;6.63;;;;;;;-1.37;68.09;100933.34;4910397;29;20277;-80
2022/03/23 02:38:16;;;;;;;9.03;6.60;;;;;;;-1.45;68.70;100933.06;4910493;29;20706;-79
2022/03/23 02:40:44;;;;;;;9.43;6.53;;;;;;;-1.45;68.59;100930.44;4905123;29;20329;-78
2022/03/23 02:43:11;;;;;;;10.27;7.10;;;;;;;-1.49;68.73;100927.16;4903530;29;20789;-78
2022/03/23 02:45:37;;;;;;;10.57;7.50;;;;;;;-1.51;68.98;100926.44;4911785;29;20266;-79
2022/03/23 02:48:06;;;;;;;9.50;7.00;;;;;;;-1.56;70.38;100927.72;4908732;29;20249;-79
2022/03/23 02:50:33;;;;;;;9.77;6.90;;;;;;;-1.58;71.07;100924.34;4910893;29;20257;-80
2022/03/23 03:02:24;;;;;;;11.50;7.67;;;;;;;-1.73;71.36;100914.97;4911334;29;20266;-79
2022/03/23 03:04:51;;;;;;;9.87;7.53;;;;;;;-1.79;71.68;100917.09;4899645;29;20244;-79
2022/03/23 03:07:18;;;;;;;11.37;6.83;;;;;;;-1.74;71.61;100915.91;4907257;29;20266;-79
2022/03/23 03:09:45;;;;;;;9.70;6.97;;;;;;;-1.80;71.63;100910.16;4920490;29;20237;-80
2022/03/23 03:12:12;;;;;;;12.93;7.80;;;;;;;-1.85;72.33;100911.41;4913678;29;20242;-81
2022/03/23 03:14:39;;;;;;;10.27;7.57;;;;;;;-1.88;72.21;100904.59;4915950;29;20329;-80
2022/03/23 03:17:07;;;;;;;9.80;7.13;;;;;;;-1.89;72.57;100912.59;4915522;29;20249;-81
2022/03/23 03:19:37;;;;;;;10.23;7.03;;;;;;;-1.95;72.91;100908.59;4914921;29;20797;-80
2022/03/23 03:22:05;;;;;;;10.30;6.97;;;;;;;-1.96;72.14;100896.41;4916490;29;20731;-79
2022/03/23 03:24:31;;;;;;;11.73;6.83;;;;;;;-1.94;72.18;100910.28;4912525;29;20268;-79
2022/03/23 03:26:58;;;;;;;9.03;6.80;;;;;;;-2.02;72.44;100912.63;4913284;29;20306;-80
2022/03/23 03:29:26;;;;;;;8.60;6.13;;;;;;;-2.00;72.80;100908.09;4909450;29;20258;-79
2022/03/23 03:31:53;;;;;;;10.80;7.13;;;;;;;-2.01;73.51;100905.59;4910575;29;20238;-81
2022/03/23 03:34:19;;;;;;;8.47;6.60;;;;;;;-2.05;73.67;100899.69;4912465;29;20238;-81
2022/03/23 03:36:46;;;;;;;11.10;6.87;;;;;;;-2.05;73.49;100909.38;4915237;29;20266;-80
2022/03/23 03:39:13;;;;;;;8.50;6.57;;;;;;;-2.09;73.68;100905.28;4908601;29;20285;-81
2022/03/23 03:41:40;;;;;;;13.40;7.87;;;;;;;-2.11;73.90;100908.03;4909880;29;20310;-81
2022/03/23 03:44:07;;;;;;;11.60;8.47;;;;;;;-2.12;73.78;100910.75;4914755;29;20337;-80
2022/03/23 03:46:34;;;;;;;11.87;9.10;;;;;;;-2.19;74.01;100906.88;4916908;29;20287;-79
2022/03/23 03:49:01;;;;;;;13.27;8.57;;;;;;;-2.26;76.32;100911.72;4909487;29;20244;-80
2022/03/23 03:51:29;;;;;;;12.67;8.30;;;;;;;-2.27;76.42;100907.41;4910159;29;20325;-79
2022/03/23 03:53:55;;;;;;;11.40;8.37;;;;;;;-2.34;77.00;100914.88;4917191;29;20234;-79
2022/03/23 03:56:22;;;;;;;11.97;7.73;;;;;;;-2.23;75.56;100914.13;4910020;29;20238;-79
2022/03/23 03:58:49;;;;;;;13.27;7.63;;;;;;;-2.33;76.24;100905.19;4912296;29;20312;-78
2022/03/23 04:01:16;;;;;;;10.20;7.20;;;;;;;-2.34;75.96;100904.38;4902585;29;20238;-79
2022/03/23 04:03:43;;;;;;;12.70;7.30;;;;;;;-2.45;77.43;100912.16;4903385;29;20321;-79
2022/03/23 04:06:10;;;;;;;9.43;7.23;;;;;;;-2.48;77.90;100912.38;4901725;29;20230;-79
2022/03/23 04:08:36;;;;;;;11.40;7.50;;;;;;;-2.51;79.05;100906.47;4910901;29;20293;-79
2022/03/23 04:11:03;;;;;;;11.73;7.50;;;;;;;-2.56;79.56;100900.69;4905777;29;20269;-80
2022/03/23 04:13:30;;;;;;;10.23;6.80;;;;;;;-2.53;79.11;100903.13;4916513;29;20280;-81
2022/03/23 04:15:57;;;;;;;9.67;7.20;;;;;;;-2.55;79.50;100911.09;4907650;29;20238;-79
2022/03/23 04:18:24;;;;;;;8.30;6.67;;;;;;;-2.56;80.16;100905.94;4918849;29;20222;-81
2022/03/23 04:20:52;;;;;;;8.73;6.57;;;;;;;-2.60;79.29;100900.06;4905332;29;20242;-81
2022/03/23 04:23:18;;;;;;;8.70;6.60;;;;;;;-2.63;79.05;100902.91;4920194;29;20230;-81
2022/03/23 04:25:45;;;;;;;9.90;6.60;;;;;;;-2.61;78.59;100908.88;4920426;29;20237;-80
2022/03/23 04:28:12;;;;;;;8.33;6.70;;;;;;;-2.64;78.85;100900.38;4920953;29;20238;-79
2022/03/23 04:30:41;;;;;;;10.83;6.37;;;;;;;-2.64;78.12;100903.00;4905648;29;20234;-80
2022/03/23 04:33:08;;;;;;;9.87;6.03;;;;;;;-2.64;79.56;100903.84;4916680;29;20239;-80
2022/03/23 04:35:35;;;;;;;8.20;6.10;;;;;;;-2.62;79.21;100909.00;4912164;29;20241;-81
2022/03/23 04:38:02;;;;;;;8.10;5.87;;;;;;;-2.60;79.27;100913.19;4908222;29;20237;-78
2022/03/23 04:40:35;;;;;;;8.00;5.80;;;;;;;-2.54;81.42;100912.78;4902972;29;20239;-79
2022/03/23 04:43:01;;;;;;;8.57;5.97;;;;;;;-2.53;80.97;100903.13;4904485;29;20239;-80
2022/03/23 04:45:28;;;;;;;6.93;5.40;;;;;;;-2.52;80.57;100913.50;4914938;29;20234;-79
2022/03/23 04:47:55;;;;;;;8.40;6.10;;;;;;;-2.51;80.73;100912.56;4906895;29;20701;-79
2022/03/23 04:50:21;;;;;;;7.67;5.60;;;;;;;-2.48;81.80;100907.13;4910068;29;20301;-80
2022/03/23 04:52:52;;;;;;;8.33;5.90;;;;;;;-2.47;81.66;100900.09;4909759;29;20234;-80
2022/03/23 04:55:19;;;;;;;9.07;6.20;;;;;;;-2.46;82.92;100901.75;4906152;29;20303;-79
2022/03/23 04:57:45;;;;;;;9.80;6.10;;;;;;;-2.42;83.39;100903.22;4905782;29;20250;-79
2022/03/23 05:00:15;;;;;;;8.43;6.23;;;;;;;-2.40;82.71;100894.31;4903128;29;20235;-80
2022/03/23 05:02:48;;;;;;;10.00;6.60;;;;;;;-2.34;82.85;100909.63;4913337;29;20242;-80
2022/03/23 05:05:15;;;;;;;10.53;5.60;;;;;;;-2.28;82.69;100895.22;4915866;29;20246;-81
2022/03/23 05:07:43;;;;;;;7.97;6.27;;;;;;;-2.37;82.22;100903.72;4917873;29;20253;-82
2022/03/23 05:10:12;;;;;;;12.70;6.50;;;;;;;-2.37;82.61;100899.31;4923798;29;20238;-80
2022/03/23 05:12:40;;;;;;;10.47;6.23;;;;;;;-2.40;83.80;100902.16;4924217;29;20235;-81
2022/03/23 05:15:08;;;;;;;9.90;6.33;;;;;;;-2.29;82.87;100898.81;4920754;29;20249;-80
2022/03/23 05:17:36;;;;;;;9.87;6.20;;;;;;;-2.30;82.14;100905.00;4916332;29;20250;-80
2022/03/23 05:20:04;;;;;;;8.17;5.93;;;;;;;-2.24;82.14;100904.59;4912865;29;20310;-81
2022/03/23 05:22:32;;;;;;;12.00;6.50;;;;;;;-2.18;80.78;100900.66;4920072;29;20246;-80
2022/03/23 05:24:59;;;;;;;7.10;5.90;;;;;;;-2.16;81.02;100899.63;4915880;29;20213;-80
2022/03/23 05:27:26;;;;;;;10.37;6.10;;;;;;;-2.15;82.41;100901.31;4897350;29;20678;-79
2022/03/23 05:29:52;;;;;;;9.90;6.50;;;;;;;-2.07;82.20;100912.09;4904519;29;20234;-79
2022/03/23 05:32:19;;;;;;;8.33;6.03;;;;;;;-1.97;83.90;100907.91;4902477;29;20234;-78
2022/03/23 05:34:48;;;;;;;8.90;6.20;;;;;;;-1.87;83.44;100906.25;4902959;29;20718;-79
2022/03/23 05:37:16;;;;;;;10.77;6.13;;;;;;;-1.73;81.48;100904.47;4902854;29;20262;-81
2022/03/23 05:39:44;;;;;;;12.77;7.93;;;;;;;-1.56;81.84;100914.59;4905094;29;20242;-79
2022/03/23 05:42:11;;;;;;;16.50;10.33;;;;;;;-1.39;79.84;100911.56;4902816;29;20714;-79
2022/03/23 05:44:38;;;;;;;17.77;12.03;;;;;;;-1.24;78.59;100910.44;4901191;29;20265;-78
2022/03/23 05:47:05;;;;;;;13.97;11.80;;;;;;;-1.07;77.45;100919.69;4900045;29;20341;-79
2022/03/23 05:49:32;;;;;;;15.60;11.33;;;;;;;-0.95;76.06;100916.19;4907365;29;20242;-79
2022/03/23 05:51:59;;;;;;;15.20;10.10;;;;;;;-0.77;75.84;100917.41;4908406;29;20309;-78
2022/03/23 05:54:25;;;;;;;17.73;10.27;;;;;;;-0.61;74.71;100917.09;4901771;29;20230;-79
2022/03/23 05:56:52;;;;;;;13.53;9.20;;;;;;;-0.45;73.86;100922.84;4903866;29;20333;-79
2022/03/23 05:59:19;;;;;;;15.60;7.70;;;;;;;-0.31;72.50;100930.53;4900873;29;20642;-79
2022/03/23 06:01:46;;;;;;;11.67;8.00;;;;;;;-0.16;71.40;100926.72;4901762;29;20806;-78
2022/03/23 06:04:13;;;;;;;12.67;7.03;;;;;;;-0.08;70.88;100924.31;4900939;29;20719;-79
2022/03/23 06:06:40;;;;;;;10.60;5.97;;;;;;;0.05;67.96;100923.38;4905657;29;20231;-79
2022/03/23 06:09:07;;;;;;;10.90;6.10;;;;;;;0.30;66.85;100936.25;4902258;29;20575;-79
2022/03/23 06:11:34;;;;;;;12.03;7.63;;;;;;;0.53;66.59;100942.31;4900328;29;20670;-79
2022/03/23 06:14:00;;;;;;;10.50;7.00;;;;;;;0.67;68.34;100939.41;4901775;29;20230;-80
2022/03/23 06:16:27;;;;;;;11.77;6.20;;;;;;;0.83;67.30;100934.56;4905368;29;20322;-79
2022/03/23 06:18:54;;;;;;;8.70;6.00;;;;;;;1.01;69.60;100942.78;4903946;29;20238;-79
2022/03/23 06:21:21;;;;;;;10.30;5.87;;;;;;;1.12;70.25;100946.19;4901515;29;20325;-79
2022/03/23 06:23:51;;;;;;;9.53;6.07;;;;;;;1.25;69.41;100948.66;4902492;29;20242;-79
2022/03/23 06:26:23;;;;;;;9.23;6.40;;;;;;;1.41;68.07;100949.03;4895589;29;20235;-80
2022/03/23 06:28:50;;;;;;;7.70;6.00;;;;;;;1.56;66.62;100945.13;4897279;29;20313;-78
2022/03/23 06:31:17;;;;;;;6.80;6.03;;;;;;;1.75;64.08;100947.88;4902092;29;20321;-77
2022/03/23 06:33:43;;;;;;;10.33;6.03;;;;;;;1.95;63.56;100955.91;4901537;29;20665;-78
2022/03/23 06:36:10;;;;;;;9.77;6.00;;;;;;;2.17;62.27;100945.13;4902661;29;20242;-78
2022/03/23 06:38:37;;;;;;;8.67;6.10;;;;;;;2.38;60.44;100951.16;4900632;29;20235;-77
2022/03/23 06:41:04;;;;;;;9.97;5.97;;;;;;;2.52;58.98;100956.06;4906685;29;20234;-77
2022/03/23 06:43:30;;;;;;;11.63;5.80;;;;;;;2.69;57.68;100953.75;4906081;29;20325;-78
2022/03/23 06:45:57;;;;;;;9.53;6.60;;;;;;;2.82;57.38;100960.47;4908286;29;20324;-78
2022/03/23 06:48:24;;;;;;;13.77;7.37;;;;;;;3.01;56.58;100957.84;4895489;29;20226;-78
2022/03/23 06:50:51;;;;;;;10.80;6.47;;;;;;;3.20;55.75;100962.28;4901845;29;20243;-78
2022/03/23 06:53:18;;;;;;;10.77;5.83;;;;;;;3.38;55.03;100965.91;4901497;29;20325;-78
2022/03/23 06:55:45;;;;;;;9.33;6.93;;;;;;;3.56;53.63;100963.38;4902776;29;20243;-78
2022/03/23 06:58:12;;;;;;;11.37;7.03;;;;;;;3.71;52.57;100964.59;4895627;29;20227;-77
2022/03/23 07:00:39;;;;;;;10.07;6.87;;;;;;;3.87;52.16;100959.50;4897722;29;20321;-79
2022/03/23 07:03:08;;;;;;;9.80;7.00;;;;;;;4.08;52.11;100961.13;4899152;29;20226;-77
2022/03/23 07:05:36;;;;;;;12.20;6.73;;;;;;;4.20;52.41;100958.13;4892028;29;20250;-79
2022/03/23 07:10:53;;;;;;;9.67;7.40;;;;;;;4.55;51.77;100961.88;4891643;29;20242;-77
2022/03/23 07:13:20;;;;;;;10.57;7.90;;;;;;;4.71;51.74;100959.44;4893786;29;20291;-79
2022/03/23 07:15:47;;;;;;;13.67;8.30;;;;;;;4.88;49.00;100959.44;4893533;29;20278;-78
2022/03/23 07:18:14;;;;;;;12.43;9.37;;;;;;;5.05;47.86;100962.22;4891326;29;20230;-78
2022/03/23 07:20:41;;;;;;;16.33;9.17;;;;;;;5.19;47.12;100961.69;4906154;29;20325;-78
2022/03/23 07:23:08;;;;;;;14.47;8.93;;;;;;;5.30;46.69;100957.00;4887528;29;20266;-79
2022/03/23 07:25:34;;;;;;;13.23;9.43;;;;;;;5.49;46.45;100960.47;4896515;29;20322;-78
2022/03/23 07:28:02;;;;;;;16.00;9.27;;;;;;;5.68;46.78;100953.13;4909757;29;20253;-77
2022/03/23 07:30:33;;;;;;;11.33;7.90;;;;;;;5.88;47.07;100956.44;4897389;29;20243;-78
2022/03/23 07:33:01;;;;;;;11.77;8.47;;;;;;;6.09;47.60;100951.56;4902820;29;20223;-79
2022/03/23 07:35:28;;;;;;;9.83;8.20;;;;;;;6.32;46.39;100945.69;4898736;29;20607;-79
2022/03/23 07:37:57;;;;;;;11.30;8.50;;;;;;;6.57;44.95;100942.97;4895113;29;20318;-78
2022/03/23 07:40:24;;;;;;;12.57;8.93;;;;;;;6.82;44.97;100953.66;4897404;29;20318;-79
2022/03/23 07:42:51;;;;;;;13.87;8.93;;;;;;;7.00;44.40;100946.38;4899029;29;20611;-79
2022/03/23 07:45:18;;;;;;;14.87;9.70;;;;;;;7.25;44.14;100952.56;4898095;29;20247;-79
2022/03/23 07:47:45;;;;;;;15.73;9.67;;;;;;;7.45;42.37;100945.91;4900922;29;20852;-78
2022/03/23 07:50:11;;;;;;;11.97;8.93;;;;;;;7.63;40.70;100941.22;4898323;29;20230;-78
2022/03/23 07:52:38;;;;;;;10.60;8.47;;;;;;;7.84;39.69;100940.66;4896500;29;20318;-78
2022/03/23 07:55:05;;;;;;;11.27;8.80;;;;;;;8.04;38.69;100939.28;4895413;29;20236;-78
2022/03/23 07:57:32;;;;;;;11.47;8.10;;;;;;;8.23;38.11;100938.88;4896292;29;20249;-78
2022/03/23 07:59:59;;;;;;;11.80;8.37;;;;;;;8.47;38.02;100934.47;4900653;29;20231;-78
2022/03/23 08:02:26;;;;;;;11.87;8.80;;;;;;;8.66;37.36;100937.56;4896376;29;20269;-78
2022/03/23 08:04:53;;;;;;;11.77;8.30;;;;;;;8.87;37.26;100938.75;4894112;29;20238;-78
2022/03/23 08:07:20;;;;;;;9.40;8.47;;;;;;;9.01;36.20;100932.66;4898670;29;20334;-79
2022/03/23 08:09:47;;;;;;;11.43;8.97;;;;;;;9.11;35.24;100926.06;4898233;29;20229;-78
2022/03/23 08:12:16;;;;;;;11.10;9.07;;;;;;;9.28;34.90;100932.13;4897182;29;20227;-78
2022/03/23 08:14:44;;;;;;;9.70;8.70;;;;;;;9.43;34.28;100932.97;4906965;29;20314;-77
2022/03/23 08:17:17;;;;;;;9.80;8.80;;;;;;;9.57;34.53;100934.03;4899491;29;20235;-78
2022/03/23 08:19:44;;;;;;;10.10;8.70;;;;;;;9.73;34.35;100931.22;4896555;29;20779;-79
2022/03/23 08:22:11;;;;;;;10.90;8.90;;;;;;;9.85;33.94;100923.53;4893377;29;20254;-78
2022/03/23 08:24:38;;;;;;;11.07;8.57;;;;;;;9.97;33.37;100916.75;4900045;29;20266;-79
2022/03/23 08:27:05;;;;;;;9.37;8.23;;;;;;;10.16;33.97;100926.94;4889985;29;20322;-78
2022/03/23 08:29:31;;;;;;;10.87;8.87;;;;;;;10.32;31.46;100918.69;4887072;29;20239;-79
2022/03/23 08:31:58;;;;;;;11.60;9.10;;;;;;;10.51;31.71;100923.47;4896477;29;20234;-78
2022/03/23 08:34:26;;;;;;;10.67;9.40;;;;;;;10.65;31.31;100921.75;4886984;29;20294;-78
2022/03/23 08:36:53;;;;;;;11.47;9.80;;;;;;;10.79;31.11;100922.75;4887078;29;20231;-78
2022/03/23 08:39:19;;;;;;;11.50;10.03;;;;;;;10.91;31.11;100919.38;4896138;29;20400;-78
2022/03/23 08:41:46;;;;;;;11.50;9.77;;;;;;;11.08;30.92;100914.59;4898287;29;20246;-78
2022/03/23 08:44:13;;;;;;;12.63;10.03;;;;;;;11.34;30.03;100914.00;4897827;29;20652;-78
2022/03/23 08:46:40;;;;;;;12.70;10.20;;;;;;;11.34;30.17;100924.72;4899570;29;20242;-78
2022/03/23 08:49:06;;;;;;;14.50;9.83;;;;;;;11.47;30.74;100923.00;4898696;29;20269;-78
2022/03/23 08:51:33;;;;;;;11.90;9.43;;;;;;;11.63;31.42;100923.72;4899138;29;20241;-79
2022/03/23 08:54:01;;;;;;;13.43;9.87;;;;;;;11.77;31.01;100926.34;4899609;29;20258;-78
2022/03/23 08:56:28;;;;;;;11.30;9.83;;;;;;;11.89;30.50;100915.91;4911977;29;20241;-80
2022/03/23 08:58:54;;;;;;;12.30;9.90;;;;;;;12.00;30.15;100918.03;4900789;29;20295;-80
2022/03/23 09:01:21;;;;;;;12.67;10.07;;;;;;;12.08;29.48;100923.25;4902231;29;20318;-80
2022/03/23 09:03:49;;;;;;;13.57;9.67;;;;;;;12.08;30.01;100917.06;4893479;29;20278;-80
2022/03/23 09:06:16;;;;;;;11.23;9.90;;;;;;;12.18;30.39;100915.63;4912297;29;20265;-80
2022/03/23 09:08:43;;;;;;;12.20;10.43;;;;;;;12.30;29.53;100916.75;4897932;29;20250;-80
2022/03/23 09:11:11;;;;;;;13.63;10.33;;;;;;;12.35;29.61;100906.25;4905001;29;20241;-80
2022/03/23 09:13:38;;;;;;;13.57;10.60;;;;;;;12.47;29.86;100900.25;4904360;29;20324;-80
2022/03/23 09:16:05;;;;;;;11.57;10.37;;;;;;;12.60;29.83;100903.00;4898035;29;20227;-81
2022/03/23 09:18:32;;;;;;;12.37;10.50;;;;;;;12.76;29.75;100899.97;4905519;29;20243;-80
2022/03/23 09:20:59;;;;;;;13.70;10.47;;;;;;;12.86;29.88;100897.72;4909153;29;20231;-80
2022/03/23 09:23:31;;;;;;;14.60;10.87;;;;;;;13.05;29.34;100896.09;4915942;29;20238;-80
2022/03/23 09:26:00;;;;;;;12.20;9.80;;;;;;;13.07;29.57;100902.91;4907616;29;20249;-80
2022/03/23 09:28:28;;;;;;;12.37;9.90;;;;;;;13.28;29.92;100901.94;4908860;29;20234;-80
2022/03/23 09:30:56;;;;;;;12.70;10.27;;;;;;;13.42;29.62;100903.59;4903045;29;20235;-80
2022/03/23 09:33:23;;;;;;;14.27;10.50;;;;;;;13.58;29.27;100891.56;4909604;29;20229;-80
2022/03/23 09:35:49;;;;;;;14.53;10.53;;;;;;;13.66;29.14;100894.06;4909820;29;20301;-79
2022/03/23 09:38:16;;;;;;;15.37;10.53;;;;;;;13.78;29.10;100886.97;4898383;29;20324;-79
2022/03/23 09:40:46;;;;;;;15.77;10.57;;;;;;;13.93;29.14;100886.75;4913318;29;20234;-80
2022/03/23 09:43:13;;;;;;;15.77;10.90;;;;;;;13.88;29.23;100883.84;4900942;29;20236;-80
2022/03/23 09:45:46;;;;;;;12.30;11.00;;;;;;;13.90;29.42;100877.25;4905493;29;20238;-78
2022/03/23 09:48:25;;;;;;;12.13;10.40;;;;;;;14.04;28.82;100872.63;4904339;29;20264;-78
2022/03/23 09:50:54;;;;;;;11.27;10.07;;;;;;;14.21;28.43;100872.97;4900385;29;20271;-78
2022/03/23 09:53:23;;;;;;;14.00;10.80;;;;;;;14.30;28.45;100861.75;4902352;29;20243;-78
2022/03/23 09:55:52;;;;;;;11.37;10.00;;;;;;;14.43;28.27;100859.00;4899975;29;20239;-78
2022/03/23 09:58:19;;;;;;;12.67;10.40;;;;;;;14.52;28.59;100862.28;4901213;29;20318;-78
2022/03/23 10:00:46;;;;;;;12.77;11.47;;;;;;;14.57;28.21;100858.94;4900791;29;20246;-78
2022/03/23 10:03:12;;;;;;;13.47;10.70;;;;;;;14.80;28.47;100862.75;4908206;29;20270;-77
2022/03/23 10:05:54;;;;;;;13.97;10.53;;;;;;;14.87;27.82;100858.16;4901758;29;20242;-78
2022/03/23 10:08:38;;;;;;;13.03;11.03;;;;;;;14.98;27.91;100856.59;4908825;29;20325;-77
2022/03/23 10:11:30;;;;;;;11.17;10.03;;;;;;;15.14;28.12;100849.84;4904876;29;20259;-80
2022/03/23 10:14:09;;;;;;;16.40;10.63;;;;;;;15.22;27.81;100847.69;4902941;29;20294;-81
2022/03/23 10:17:09;;;;;;;12.73;10.57;;;;;;;15.35;27.54;100844.88;4900777;29;20239;-80
2022/03/23 10:19:43;;;;;;;14.67;10.23;;;;;;;15.62;27.03;100841.97;4907428;29;20266;-80
2022/03/23 10:22:12;;;;;;;12.37;10.10;;;;;;;15.79;27.15;100834.94;4900934;29;20305;-81
2022/03/23 10:24:40;;;;;;;12.97;10.03;;;;;;;15.96;27.30;100829.78;4906233;29;20232;-80
2022/03/23 10:27:10;;;;;;;11.20;10.00;;;;;;;16.18;26.73;100828.25;4904460;29;20685;-80
2022/03/23 10:29:48;;;;;;;11.57;10.43;;;;;;;16.37;26.07;100826.34;4908281;29;20335;-77
2022/03/23 10:32:17;;;;;;;12.93;10.10;;;;;;;16.48;26.54;100820.13;4904245;29;20674;-78
2022/03/23 10:34:48;;;;;;;12.80;10.10;;;;;;;16.70;26.78;100819.41;4902632;29;20235;-78
2022/03/23 10:37:23;;;;;;;13.10;10.13;;;;;;;16.90;25.42;100810.16;4904384;29;20237;-78
2022/03/23 10:39:50;;;;;;;11.43;10.30;;;;;;;17.03;24.50;100810.78;4906808;29;20236;-78
2022/03/23 10:42:19;;;;;;;11.53;9.37;;;;;;;17.18;25.08;100803.03;4908857;29;20246;-77
2022/03/23 10:44:45;;;;;;;12.47;9.50;;;;;;;17.41;24.56;100804.94;4902439;29;20217;-79
2022/03/23 10:47:27;;;;;;;11.63;10.00;;;;;;;17.62;24.60;100803.53;4882284;29;20730;-79
2022/03/23 10:49:55;;;;;;;11.57;10.10;;;;;;;17.77;24.71;100800.34;4907596;29;20611;-79
2022/03/23 10:52:24;;;;;;;12.47;10.33;;;;;;;17.94;24.28;100793.94;4904213;29;20258;-79
2022/03/23 10:55:02;;;;;;;13.63;10.60;;;;;;;17.96;23.94;100786.38;4909476;29;20243;-78
2022/03/23 10:57:45;;;;;;;10.87;9.77;;;;;;;18.16;23.26;100783.25;4913483;29;20278;-80
2022/03/23 11:00:19;;;;;;;12.37;9.93;;;;;;;18.31;23.56;100783.56;4912710;29;20234;-79
2022/03/23 11:02:47;;;;;;;10.33;9.33;;;;;;;18.41;23.07;100777.50;4909970;29;20266;-79
2022/03/23 11:05:36;;;;;;;10.33;8.83;;;;;;;18.54;21.47;100768.25;4914088;29;20234;-79
2022/03/23 11:08:09;;;;;;;9.83;8.87;;;;;;;18.68;21.66;100762.28;4913428;29;20333;-79
2022/03/23 11:16:12;;;;;;;8.67;7.80;;;;;;;19.10;20.04;100751.00;4906645;29;20234;-79
2022/03/23 11:18:39;;;;;;;9.13;8.30;;;;;;;19.17;20.17;100740.78;4896315;29;20256;-80
2022/03/23 11:21:06;;;;;;;8.43;7.40;;;;;;;19.33;20.35;100738.03;4910257;29;20236;-80
2022/03/23 11:23:36;;;;;;;9.23;7.80;;;;;;;19.45;19.62;100735.25;4901192;29;20289;-79
2022/03/23 11:26:11;;;;;;;8.90;8.10;;;;;;;19.47;19.77;100727.66;4901780;29;20261;-79
2022/03/23 11:28:40;;;;;;;9.13;8.23;;;;;;;19.71;19.21;100723.63;4906635;29;20333;-79
2022/03/23 11:31:09;;;;;;;11.97;8.17;;;;;;;19.72;19.65;100719.00;4910163;29;20318;-80
2022/03/23 11:33:37;;;;;;;9.40;8.50;;;;;;;19.79;19.15;100719.63;4898089;29;20604;-80
2022/03/23 11:36:10;;;;;;;11.23;8.20;;;;;;;19.96;18.91;100708.69;4904502;29;20790;-79
2022/03/23 11:38:39;;;;;;;12.37;8.93;;;;;;;20.00;18.90;100705.19;4903174;29;20338;-79
2022/03/23 11:41:06;;;;;;;9.33;8.27;;;;;;;20.08;19.30;100709.34;4902194;29;20310;-78